createdAt,value
2022-12-01T00:01:29.151Z,22.52
2022-12-01T00:03:55.784Z,20.30
2022-12-01T00:06:24.853Z,17.83
2022-12-01T00:09:16.443Z,22.15
2022-12-01T00:11:47.164Z,20.83
2022-12-01T00:14:14.499Z,18.13
2022-12-01T00:16:41.337Z,19.65
2022-12-01T00:19:08.711Z,17.70
2022-12-01T00:21:37.513Z,19.52
2022-12-01T00:24:06.817Z,18.20
2022-12-01T00:26:35.623Z,19.45
2022-12-01T00:29:07.051Z,19.25
2022-12-01T00:31:36.448Z,16.92
2022-12-01T00:34:06.951Z,18.52
2022-12-01T00:36:39.865Z,18.83
2022-12-01T00:39:08.697Z,17.95
2022-12-01T00:41:35.425Z,20.52
2022-12-01T00:44:04.531Z,17.92
2022-12-01T00:46:31.250Z,21.17
2022-12-01T00:49:00.151Z,19.45
2022-12-01T00:51:29.075Z,19.35
2022-12-01T00:53:58.271Z,19.70
2022-12-01T00:56:27.208Z,19.02
2022-12-01T00:58:56.296Z,18.67
2022-12-01T01:01:23.125Z,18.85
2022-12-01T01:03:49.895Z,20.38
2022-12-01T01:06:16.550Z,21.35
2022-12-01T01:08:43.273Z,19.40
2022-12-01T01:11:10.205Z,22.00
2022-12-01T01:13:39.986Z,21.25
2022-12-01T01:16:19.053Z,21.23
2022-12-01T01:18:48.909Z,20.30
2022-12-01T01:21:18.457Z,20.13
2022-12-01T01:23:50.430Z,22.05
2022-12-01T01:26:18.574Z,22.50
2022-12-01T01:28:45.959Z,21.60
2022-12-01T01:31:16.262Z,22.52
2022-12-01T01:33:45.239Z,21.13
2022-12-01T01:36:12.531Z,22.45
2022-12-01T01:38:39.330Z,21.55
2022-12-01T01:41:09.704Z,21.60
2022-12-01T01:43:55.278Z,24.02
2022-12-01T01:46:23.429Z,26.10
2022-12-01T01:48:54.693Z,25.27
2022-12-01T01:51:29.550Z,25.75
2022-12-01T01:54:01.239Z,31.02
2022-12-01T01:56:31.276Z,29.45
2022-12-01T01:58:59.185Z,27.45
2022-12-01T02:01:25.920Z,28.92
2022-12-01T02:03:54.643Z,28.10
2022-12-01T02:06:25.330Z,30.77
2022-12-01T02:08:52.205Z,30.92
2022-12-01T02:11:28.138Z,32.45
2022-12-01T02:14:00.805Z,32.90
2022-12-01T02:16:34.534Z,34.38
2022-12-01T02:19:22.657Z,33.90
2022-12-01T02:22:12.957Z,35.65
2022-12-01T02:25:06.944Z,37.63
2022-12-01T02:27:33.535Z,37.67
2022-12-01T02:30:10.827Z,37.63
2022-12-01T02:33:04.774Z,37.35
2022-12-01T02:35:46.195Z,41.28
2022-12-01T02:38:27.036Z,36.85
2022-12-01T02:41:16.637Z,36.08
2022-12-01T02:43:55.741Z,39.53
2022-12-01T02:46:38.248Z,34.50
2022-12-01T02:49:11.702Z,39.53
2022-12-01T02:51:41.858Z,39.30
2022-12-01T02:54:12.639Z,34.33
2022-12-01T02:56:44.021Z,39.58
2022-12-01T02:59:14.916Z,39.90
2022-12-01T03:01:56.456Z,37.22
2022-12-01T03:04:35.471Z,35.38
2022-12-01T03:07:20.773Z,37.78
2022-12-01T03:09:52.639Z,37.73
2022-12-01T03:12:28.601Z,38.97
2022-12-01T03:14:55.610Z,36.10
2022-12-01T03:17:28.761Z,39.22
2022-12-01T03:20:11.667Z,37.35
2022-12-01T03:22:48.170Z,33.88
2022-12-01T03:25:17.534Z,34.88
2022-12-01T03:28:13.860Z,35.50
2022-12-01T03:30:39.499Z,38.65
2022-12-01T03:33:34.854Z,36.08
2022-12-01T03:36:19.489Z,39.25
2022-12-01T03:38:59.714Z,40.33
2022-12-01T03:41:36.522Z,44.15
2022-12-01T03:44:18.639Z,39.20
2022-12-01T03:46:58.474Z,40.47
2022-12-01T03:49:25.756Z,45.08
2022-12-01T03:52:19.473Z,43.03
2022-12-01T03:54:58.563Z,45.00
2022-12-01T03:58:01.586Z,47.53
2022-12-01T04:00:29.490Z,45.15
2022-12-01T04:03:04.783Z,46.22
2022-12-01T04:05:37.189Z,40.13
2022-12-01T04:08:08.738Z,48.42
2022-12-01T04:10:37.889Z,47.38
2022-12-01T04:13:11.955Z,48.35
2022-12-01T04:15:38.741Z,52.67
2022-12-01T04:18:07.976Z,57.80
2022-12-01T04:20:37.201Z,55.58
2022-12-01T04:23:03.910Z,52.97
2022-12-01T04:25:30.615Z,58.53
2022-12-01T04:27:59.485Z,55.70
2022-12-01T04:30:26.173Z,63.03
2022-12-01T04:32:52.898Z,64.85
2022-12-01T04:35:22.027Z,56.30
2022-12-01T04:37:50.894Z,60.20
2022-12-01T04:40:21.602Z,61.00
2022-12-01T04:42:50.732Z,59.72
2022-12-01T04:45:17.384Z,63.80
2022-12-01T04:47:44.055Z,58.47
2022-12-01T04:50:11.818Z,60.17
2022-12-01T04:52:38.440Z,57.58
2022-12-01T04:55:08.442Z,59.42
2022-12-01T04:57:35.134Z,58.45
2022-12-01T05:00:12.911Z,50.83
2022-12-01T05:02:43.566Z,59.17
2022-12-01T05:05:11.394Z,59.97
2022-12-01T05:07:40.833Z,54.95
2022-12-01T05:10:08.359Z,61.58
2022-12-01T05:12:34.994Z,63.47
2022-12-01T05:15:01.612Z,61.13
2022-12-01T05:17:37.267Z,55.33
2022-12-01T05:23:10.819Z,61.83
2022-12-01T05:25:39.103Z,58.03
2022-12-01T05:28:06.553Z,64.97
2022-12-01T05:30:33.380Z,57.28
2022-12-01T05:33:00.152Z,59.88
2022-12-01T05:35:27.103Z,58.72
2022-12-01T05:37:56.115Z,58.80
2022-12-01T05:40:22.820Z,65.20
2022-12-01T05:42:51.871Z,54.72
2022-12-01T05:45:20.691Z,60.10
2022-12-01T05:47:49.878Z,59.05
2022-12-01T05:50:18.946Z,58.95
2022-12-01T05:52:45.597Z,56.60
2022-12-01T05:55:12.328Z,53.65
2022-12-01T05:57:39.010Z,59.88
2022-12-01T06:00:08.881Z,52.53
2022-12-01T06:02:40.247Z,52.75
2022-12-01T06:05:10.055Z,55.15
2022-12-01T06:07:36.763Z,56.10
2022-12-01T06:10:06.802Z,58.90
2022-12-01T06:12:38.256Z,52.03
2022-12-01T06:15:06.690Z,62.08
2022-12-01T06:17:40.181Z,59.38
2022-12-01T06:20:08.459Z,54.10
2022-12-01T06:22:37.325Z,57.33
2022-12-01T06:25:04.573Z,53.38
2022-12-01T06:27:33.599Z,58.13
2022-12-01T06:30:00.449Z,54.95
2022-12-01T06:32:29.568Z,54.95
2022-12-01T06:34:56.224Z,59.03
2022-12-01T06:37:22.946Z,54.10
2022-12-01T06:39:53.958Z,54.88
2022-12-01T06:42:23.461Z,53.47
2022-12-01T06:44:50.196Z,50.05
2022-12-01T06:47:16.910Z,52.30
2022-12-01T06:49:43.991Z,48.80
2022-12-01T06:52:10.655Z,54.60
2022-12-01T06:54:37.623Z,52.28
2022-12-01T06:57:04.502Z,51.30
2022-12-01T06:59:38.851Z,51.08
2022-12-01T07:02:10.925Z,52.03
2022-12-01T07:04:40.189Z,43.90
2022-12-01T07:07:09.098Z,45.67
2022-12-01T07:09:35.728Z,48.45
2022-12-01T07:12:04.795Z,52.13
2022-12-01T07:14:34.398Z,46.15
2022-12-01T07:17:01.178Z,45.97
2022-12-01T07:19:28.346Z,51.38
2022-12-01T07:21:55.074Z,45.58
2022-12-01T07:24:21.711Z,50.72
2022-12-01T07:26:50.514Z,47.42
2022-12-01T07:29:19.696Z,46.10
2022-12-01T07:31:48.554Z,46.92
2022-12-01T07:34:19.918Z,47.30
2022-12-01T07:36:48.724Z,44.25
2022-12-01T07:39:15.649Z,44.92
2022-12-01T07:41:42.326Z,45.97
2022-12-01T07:44:11.110Z,43.72
2022-12-01T07:46:40.718Z,42.15
2022-12-01T07:49:08.419Z,43.65
2022-12-01T07:51:37.256Z,46.22
2022-12-01T07:54:08.194Z,42.08
2022-12-01T07:56:37.535Z,44.00
2022-12-01T07:59:04.251Z,42.72
2022-12-01T08:01:33.352Z,37.80
2022-12-01T08:04:02.877Z,38.83
2022-12-01T08:06:31.820Z,37.05
2022-12-01T08:09:00.804Z,40.95
2022-12-01T08:11:29.802Z,45.90
2022-12-01T08:13:57.248Z,43.33
2022-12-01T08:16:30.809Z,43.50
2022-12-01T08:18:59.917Z,38.35
2022-12-01T08:21:28.849Z,41.80
2022-12-01T08:23:58.410Z,43.75
2022-12-01T08:26:26.323Z,44.42
2022-12-01T08:29:00.936Z,45.15
2022-12-01T08:31:32.153Z,44.65
2022-12-01T08:33:59.225Z,46.45
2022-12-01T08:36:26.181Z,42.55
2022-12-01T08:38:54.491Z,40.30
2022-12-01T08:41:24.826Z,45.45
2022-12-01T08:44:00.357Z,42.35
2022-12-01T08:46:31.091Z,42.28
2022-12-01T08:49:00.758Z,40.00
2022-12-01T08:51:27.608Z,41.20
2022-12-01T08:53:58.470Z,36.83
2022-12-01T08:56:25.150Z,38.83
2022-12-01T08:58:53.266Z,39.08
2022-12-01T09:01:20.612Z,38.97
2022-12-01T09:03:47.477Z,42.50
2022-12-01T09:06:17.291Z,42.63
2022-12-01T09:08:44.339Z,36.85
2022-12-01T09:11:14.426Z,38.75
2022-12-01T09:13:42.125Z,35.20
2022-12-01T09:16:17.370Z,40.50
2022-12-01T09:18:48.436Z,45.80
2022-12-01T09:21:21.871Z,37.65
2022-12-01T09:23:51.689Z,35.72
2022-12-01T09:26:19.641Z,35.33
2022-12-01T09:28:49.923Z,34.08
2022-12-01T09:31:18.347Z,36.50
2022-12-01T09:33:45.466Z,34.83
2022-12-01T09:36:12.394Z,32.30
2022-12-01T09:38:39.669Z,35.90
2022-12-01T09:41:17.803Z,32.40
2022-12-01T09:43:52.098Z,36.65
2022-12-01T09:46:24.365Z,39.47
2022-12-01T09:48:58.362Z,36.67
2022-12-01T09:51:30.998Z,36.22
2022-12-01T09:53:59.677Z,30.90
2022-12-01T09:56:34.019Z,34.33
2022-12-01T09:59:02.794Z,34.75
2022-12-01T10:01:43.108Z,32.47
2022-12-01T10:04:22.605Z,33.10
2022-12-01T10:07:01.946Z,32.55
2022-12-01T10:09:41.543Z,30.38
2022-12-01T10:12:20.144Z,30.00
2022-12-01T10:14:50.494Z,30.60
2022-12-01T10:17:47.640Z,32.78
2022-12-01T10:20:35.558Z,32.15
2022-12-01T10:23:27.723Z,33.55
2022-12-01T10:26:06.011Z,31.35
2022-12-01T10:28:50.331Z,31.02
2022-12-01T10:31:36.615Z,27.55
2022-12-01T10:34:08.091Z,30.88
2022-12-01T10:36:37.200Z,26.48
2022-12-01T10:39:07.013Z,26.50
2022-12-01T10:41:36.951Z,27.75
2022-12-01T10:44:05.846Z,27.75
2022-12-01T10:46:32.533Z,31.00
2022-12-01T10:49:07.365Z,30.17
2022-12-01T10:51:56.555Z,29.03
2022-12-01T10:54:32.238Z,29.85
2022-12-01T10:59:38.565Z,29.65
2022-12-01T11:02:14.890Z,28.90
2022-12-01T11:05:06.314Z,25.75
2022-12-01T11:07:37.175Z,21.95
2022-12-01T11:10:39.323Z,21.35
2022-12-01T11:13:22.651Z,20.25
2022-12-01T11:15:52.952Z,20.08
2022-12-01T11:18:24.274Z,19.20
2022-12-01T11:21:09.638Z,22.80
2022-12-01T11:23:46.247Z,23.15
2022-12-01T11:26:15.617Z,19.70
2022-12-01T11:28:56.133Z,25.33
2022-12-01T11:31:36.697Z,28.98
2022-12-01T11:34:03.789Z,26.40
2022-12-01T11:36:44.400Z,29.23
2022-12-01T11:39:29.092Z,24.73
2022-12-01T11:41:59.832Z,27.10
2022-12-01T11:47:24.549Z,27.30
2022-12-01T11:50:01.339Z,25.13
2022-12-01T11:52:34.666Z,22.40
2022-12-01T11:55:24.486Z,25.17
2022-12-01T11:58:03.875Z,25.17
2022-12-01T12:00:54.207Z,19.52
2022-12-01T12:03:38.841Z,19.58
2022-12-01T12:09:33.361Z,20.40
2022-12-01T12:12:27.267Z,23.80
2022-12-01T12:15:16.746Z,26.42
2022-12-01T12:17:55.843Z,27.17
2022-12-01T12:20:53.347Z,30.67
2022-12-01T12:23:45.436Z,27.75
2022-12-01T12:26:19.783Z,29.60
2022-12-01T12:28:55.044Z,27.17
2022-12-01T12:31:24.498Z,29.73
2022-12-01T12:34:02.872Z,28.85
2022-12-01T12:36:41.805Z,33.00
2022-12-01T12:39:24.299Z,31.60
2022-12-01T12:41:59.750Z,34.83
2022-12-01T12:44:45.482Z,35.35
2022-12-01T12:47:24.023Z,33.25
2022-12-01T12:50:24.906Z,37.35
2022-12-01T12:52:56.936Z,38.08
2022-12-01T12:55:30.247Z,38.28
2022-12-01T12:58:13.213Z,41.72
2022-12-01T13:00:46.687Z,38.60
2022-12-01T13:03:21.839Z,40.75
2022-12-01T13:06:01.022Z,38.42
2022-12-01T13:08:33.740Z,37.40
2022-12-01T13:11:22.238Z,40.75
2022-12-01T13:14:07.307Z,39.97
2022-12-01T13:16:37.947Z,41.50
2022-12-01T13:19:11.405Z,44.80
2022-12-01T13:21:43.081Z,41.85
2022-12-01T13:24:21.334Z,42.00
2022-12-01T13:27:11.400Z,47.03
2022-12-01T13:29:47.622Z,42.22
2022-12-01T13:32:36.906Z,39.25
2022-12-01T13:36:01.416Z,39.70
2022-12-01T13:38:37.424Z,36.83
2022-12-01T13:41:19.174Z,38.97
2022-12-01T13:44:22.680Z,37.28
2022-12-01T13:46:51.685Z,41.30
2022-12-01T13:49:47.484Z,40.28
2022-12-01T13:52:25.744Z,42.33
2022-12-01T13:55:07.871Z,39.97
2022-12-01T13:57:34.600Z,42.30
2022-12-01T14:00:01.279Z,47.60
2022-12-01T14:02:32.677Z,45.28
2022-12-01T14:05:24.434Z,42.33
2022-12-01T14:07:52.473Z,42.65
2022-12-01T14:10:35.101Z,41.60
2022-12-01T14:13:05.584Z,42.22
2022-12-01T14:15:42.277Z,40.53
2022-12-01T14:18:18.392Z,45.15
2022-12-01T14:20:50.020Z,41.45
2022-12-01T14:23:19.244Z,43.40
2022-12-01T14:26:02.647Z,39.92
2022-12-01T14:29:03.013Z,43.58
2022-12-01T14:31:32.732Z,40.55
2022-12-01T14:34:19.233Z,41.42
2022-12-01T14:36:54.488Z,39.65
2022-12-01T14:39:31.793Z,36.92
2022-12-01T14:42:03.448Z,40.03
2022-12-01T14:44:33.294Z,42.75
2022-12-01T14:47:21.967Z,42.13
2022-12-01T14:50:11.754Z,41.17
2022-12-01T14:52:46.109Z,37.33
2022-12-01T14:55:24.960Z,42.15
2022-12-01T14:58:14.732Z,46.03
2022-12-01T15:00:54.623Z,43.28
2022-12-01T15:03:27.594Z,44.67
2022-12-01T15:05:57.335Z,47.20
2022-12-01T15:08:53.076Z,46.58
2022-12-01T15:11:23.910Z,47.88
2022-12-01T15:13:56.022Z,45.47
2022-12-01T15:16:25.664Z,46.83
2022-12-01T15:18:53.459Z,49.47
2022-12-01T15:21:22.583Z,42.85
2022-12-01T15:24:02.397Z,48.22
2022-12-01T15:26:46.353Z,47.08
2022-12-01T15:29:21.088Z,47.35
2022-12-01T15:31:51.093Z,51.17
2022-12-01T15:34:24.794Z,46.75
2022-12-01T15:36:53.367Z,42.58
2022-12-01T15:39:25.883Z,39.67
2022-12-01T15:41:56.039Z,37.40
2022-12-01T15:44:35.787Z,39.63
2022-12-01T15:47:32.970Z,38.40
2022-12-01T15:49:59.901Z,35.45
2022-12-01T15:52:26.644Z,32.13
2022-12-01T15:54:53.426Z,31.75
2022-12-01T15:57:21.914Z,34.45
2022-12-01T15:59:55.014Z,33.10
2022-12-01T16:02:25.071Z,35.50
2022-12-01T16:05:18.297Z,35.15
2022-12-01T16:10:36.824Z,32.40
2022-12-01T16:13:41.209Z,37.67
2022-12-01T16:16:33.671Z,36.33
2022-12-01T16:19:04.175Z,37.72
2022-12-01T16:21:44.885Z,40.70
2022-12-01T16:24:21.023Z,36.33
2022-12-01T16:26:48.796Z,34.10
2022-12-01T16:29:49.936Z,34.92
2022-12-01T16:32:39.008Z,40.10
2022-12-01T16:35:20.143Z,41.55
2022-12-01T16:37:46.895Z,41.17
2022-12-01T16:40:14.174Z,38.70
2022-12-01T16:42:40.912Z,42.47
2022-12-01T16:45:10.217Z,40.42
2022-12-01T16:47:36.953Z,44.17
2022-12-01T16:50:03.970Z,40.25
2022-12-01T16:52:46.335Z,41.25
2022-12-01T16:55:31.899Z,48.30
2022-12-01T16:57:58.777Z,43.92
2022-12-01T17:00:25.752Z,44.42
2022-12-01T17:02:52.853Z,46.30
2022-12-01T17:05:19.813Z,43.95
2022-12-01T17:07:46.654Z,42.92
2022-12-01T17:10:16.445Z,41.70
2022-12-01T17:12:43.198Z,45.08
2022-12-01T17:15:10.793Z,49.00
2022-12-01T17:17:37.697Z,44.88
2022-12-01T17:20:05.993Z,49.30
2022-12-01T17:22:32.946Z,53.10
2022-12-01T17:24:59.689Z,50.70
2022-12-01T17:27:27.678Z,49.50
2022-12-01T17:29:55.042Z,57.65
2022-12-01T17:32:21.828Z,51.78
2022-12-01T17:34:48.972Z,58.33
2022-12-01T17:37:20.649Z,53.50
2022-12-01T17:39:47.628Z,53.80
2022-12-01T17:42:16.776Z,54.17
2022-12-01T17:44:43.571Z,58.65
2022-12-01T17:47:10.489Z,56.10
2022-12-01T17:49:37.515Z,58.13
2022-12-01T17:52:05.521Z,53.50
2022-12-01T17:54:32.660Z,55.13
2022-12-01T17:56:59.444Z,54.50
2022-12-01T17:59:26.338Z,56.15
2022-12-01T18:01:53.072Z,57.55
2022-12-01T18:04:19.909Z,58.05
2022-12-01T18:06:50.780Z,53.30
2022-12-01T18:09:21.724Z,58.85
2022-12-01T18:11:48.621Z,56.60
2022-12-01T18:14:17.792Z,56.15
2022-12-01T18:16:45.095Z,56.05
2022-12-01T18:19:12.661Z,54.65
2022-12-01T18:21:39.939Z,50.28
2022-12-01T18:24:10.256Z,54.80
2022-12-01T18:26:39.984Z,58.40
2022-12-01T18:29:12.016Z,65.53
2022-12-01T18:31:39.038Z,66.60
2022-12-01T18:34:10.566Z,77.70
2022-12-01T18:36:40.693Z,67.70
2022-12-01T18:39:09.240Z,66.20
2022-12-01T18:41:36.475Z,69.97
2022-12-01T18:44:08.392Z,70.97
2022-12-01T18:46:35.320Z,68.97
2022-12-01T18:49:03.103Z,71.70
2022-12-01T18:51:34.852Z,69.63
2022-12-01T18:54:03.572Z,66.00
2022-12-01T18:56:30.814Z,62.60
2022-12-01T18:59:03.208Z,60.15
2022-12-01T19:01:32.672Z,59.22
2022-12-01T19:04:02.290Z,58.72
2022-12-01T19:06:29.863Z,59.30
2022-12-01T19:09:00.275Z,56.30
2022-12-01T19:11:27.917Z,50.38
2022-12-01T19:13:56.803Z,53.05
2022-12-01T19:16:26.127Z,54.78
2022-12-01T19:18:55.385Z,48.88
2022-12-01T19:21:24.735Z,49.20
2022-12-01T19:23:53.119Z,50.88
2022-12-01T19:26:21.840Z,51.17
2022-12-01T19:28:51.416Z,51.97
2022-12-01T19:31:25.763Z,52.08
2022-12-01T19:33:53.927Z,58.55
2022-12-01T19:36:27.292Z,54.53
2022-12-01T19:38:57.502Z,57.17
2022-12-01T19:41:26.592Z,53.20
2022-12-01T19:43:55.281Z,53.65
2022-12-01T19:46:24.000Z,54.22
2022-12-01T19:48:58.761Z,51.70
2022-12-01T19:51:31.391Z,52.05
2022-12-01T19:53:58.677Z,39.95
2022-12-01T19:56:28.400Z,40.20
2022-12-01T19:58:56.987Z,35.15
2022-12-01T20:01:25.113Z,39.15
2022-12-01T20:03:56.347Z,39.03
2022-12-01T20:06:26.064Z,37.90
2022-12-01T20:08:56.329Z,32.80
2022-12-01T20:11:24.751Z,35.55
2022-12-01T20:13:53.906Z,33.45
2022-12-01T20:16:27.891Z,34.58
2022-12-01T20:18:56.374Z,32.85
2022-12-01T20:21:27.816Z,36.63
2022-12-01T20:24:00.279Z,34.75
2022-12-01T20:26:30.841Z,33.75
2022-12-01T20:29:13.773Z,33.10
2022-12-01T20:31:41.309Z,31.60
2022-12-01T20:34:26.560Z,32.63
2022-12-01T20:37:01.012Z,34.67
2022-12-01T20:39:31.728Z,33.38
2022-12-01T20:41:58.802Z,35.85
2022-12-01T20:44:25.864Z,39.22
2022-12-01T20:46:54.820Z,36.97
2022-12-01T20:49:24.230Z,36.50
2022-12-01T20:51:50.974Z,34.58
2022-12-01T20:54:27.988Z,38.92
2022-12-01T20:56:58.035Z,35.05
2022-12-01T20:59:29.041Z,34.03
2022-12-01T21:02:00.267Z,33.30
2022-12-01T21:04:32.526Z,36.00
2022-12-01T21:07:03.799Z,37.45
2022-12-01T21:09:31.713Z,33.95
2022-12-01T21:12:17.996Z,35.92
2022-12-01T21:15:15.083Z,31.65
2022-12-01T21:17:57.780Z,39.00
2022-12-01T21:20:33.062Z,37.63
2022-12-01T21:23:17.678Z,37.90
2022-12-01T21:25:47.890Z,34.03
2022-12-01T21:28:27.116Z,34.25
2022-12-01T21:31:12.956Z,39.58
2022-12-01T21:33:53.612Z,37.55
2022-12-01T21:36:24.594Z,40.78
2022-12-01T21:38:59.544Z,38.67
2022-12-01T21:41:29.129Z,34.45
2022-12-01T21:44:26.636Z,42.58
2022-12-01T21:47:04.965Z,39.47
2022-12-01T21:49:41.601Z,42.08
2022-12-01T21:52:33.998Z,41.05
2022-12-01T21:55:23.534Z,40.08
2022-12-01T21:57:55.862Z,38.20
2022-12-01T22:00:35.635Z,35.88
2022-12-01T22:03:10.435Z,41.42
2022-12-01T22:05:40.916Z,39.13
2022-12-01T22:08:36.225Z,39.17
2022-12-01T22:11:12.063Z,43.92
2022-12-01T22:13:48.423Z,45.85
2022-12-01T22:16:42.643Z,46.80
2022-12-01T22:19:15.399Z,47.53
2022-12-01T22:21:46.687Z,39.60
2022-12-01T22:24:34.028Z,42.28
2022-12-01T22:27:14.153Z,46.83
2022-12-01T22:29:46.905Z,41.80
2022-12-01T22:32:13.519Z,44.30
2022-12-01T22:34:51.279Z,46.45
2022-12-01T22:37:43.014Z,53.08
2022-12-01T22:40:45.413Z,52.03
2022-12-01T22:43:17.958Z,47.65
2022-12-01T22:45:48.901Z,50.10
2022-12-01T22:48:27.752Z,45.92
2022-12-01T22:50:55.285Z,46.45
2022-12-01T22:53:29.246Z,46.33
2022-12-01T22:56:00.392Z,46.35
2022-12-01T22:58:38.303Z,45.45
2022-12-01T23:01:20.482Z,49.90
2022-12-01T23:03:48.321Z,50.15
2022-12-01T23:06:52.935Z,46.00
2022-12-01T23:09:24.036Z,44.42
2022-12-01T23:12:02.016Z,47.58
2022-12-01T23:14:29.053Z,47.55
2022-12-01T23:17:14.851Z,46.63
2022-12-01T23:19:43.655Z,49.33
2022-12-01T23:22:11.242Z,47.33
2022-12-01T23:24:39.285Z,46.38
2022-12-01T23:27:08.759Z,39.75
2022-12-01T23:29:38.601Z,43.70
2022-12-01T23:32:05.503Z,46.55
2022-12-01T23:34:36.794Z,42.95
2022-12-01T23:37:03.647Z,40.50
2022-12-01T23:39:35.597Z,45.92
2022-12-01T23:42:03.358Z,42.92
2022-12-01T23:44:40.766Z,40.92
2022-12-01T23:47:28.399Z,44.42
2022-12-01T23:50:03.001Z,43.35
2022-12-01T23:52:36.389Z,43.42
2022-12-01T23:55:14.481Z,43.63
2022-12-01T23:57:41.156Z,44.20
